createdAt,value
2023-02-27T00:12:25.633Z,3.6
2023-02-27T00:27:25.681Z,3.93
2023-02-27T00:42:25.675Z,3.96
2023-02-27T00:57:25.772Z,4.2
2023-02-27T01:12:25.522Z,4.89
2023-02-27T01:27:25.404Z,4.28
2023-02-27T01:42:25.587Z,4.48
2023-02-27T01:57:25.676Z,4.24
2023-02-27T02:12:25.780Z,3.97
2023-02-27T02:27:25.956Z,4.35
2023-02-27T02:42:25.667Z,4.36
2023-02-27T02:57:25.781Z,3.95
2023-02-27T03:12:25.692Z,3.55
2023-02-27T03:27:25.585Z,4.2
2023-02-27T03:42:25.589Z,3.58
2023-02-27T03:57:25.457Z,3.98
2023-02-27T04:12:25.383Z,3.75
2023-02-27T04:27:25.743Z,6.12
2023-02-27T04:42:25.450Z,6.69
2023-02-27T04:57:25.286Z,5.52
2023-02-27T05:12:25.290Z,4.98
2023-02-27T05:27:25.510Z,3.84
2023-02-27T05:42:25.903Z,6.45
2023-02-27T05:57:25.456Z,4.23
2023-02-27T06:12:25.987Z,5.25
2023-02-27T06:27:25.480Z,5.21
2023-02-27T06:42:25.883Z,6.33
2023-02-27T06:57:25.332Z,6.88
2023-02-27T07:12:25.580Z,11.15
2023-02-27T07:27:25.639Z,9.33
2023-02-27T07:42:25.857Z,12.27
2023-02-27T07:57:25.866Z,12.12
2023-02-27T08:12:25.695Z,8.15
2023-02-27T08:27:25.469Z,8.71
2023-02-27T08:42:26.958Z,8.5
2023-02-27T08:57:25.949Z,7.27
2023-02-27T09:12:25.790Z,6.73
2023-02-27T09:27:25.862Z,7.08
2023-02-27T09:42:25.927Z,9.56
2023-02-27T09:57:25.606Z,6.14
2023-02-27T10:12:25.244Z,10.11
2023-02-27T10:27:25.290Z,6.74
2023-02-27T10:42:25.780Z,6.13
2023-02-27T10:57:25.630Z,7.55
2023-02-27T11:12:25.666Z,16.13
2023-02-27T11:27:25.659Z,15
2023-02-27T11:42:25.574Z,5.84
2023-02-27T11:57:25.948Z,5.66
2023-02-27T12:12:25.996Z,6.48
2023-02-27T12:27:25.333Z,6.71
2023-02-27T12:42:25.464Z,8.31
2023-02-27T12:57:25.593Z,7.15
2023-02-27T13:12:25.590Z,8.5
2023-02-27T13:27:25.837Z,8.48
2023-02-27T13:42:25.622Z,8
2023-02-27T13:57:25.344Z,7.42
2023-02-27T14:12:28.835Z,7.31
2023-02-27T14:27:26.037Z,13.5
2023-02-27T14:42:26.046Z,6.76
2023-02-27T14:57:26.724Z,8.62
2023-02-27T15:12:26.145Z,12.49
2023-02-27T15:27:25.611Z,22.15
2023-02-27T15:42:25.756Z,16.73
2023-02-27T15:57:26.047Z,14.74
2023-02-27T16:12:25.930Z,14.13
2023-02-27T16:27:26.030Z,12.13
2023-02-27T16:42:25.611Z,9.94
2023-02-27T16:57:25.438Z,9.4
2023-02-27T17:12:25.597Z,9.64
2023-02-27T17:27:25.480Z,10.65
2023-02-27T17:42:25.218Z,11.73
2023-02-27T17:57:25.420Z,10.66
2023-02-27T18:12:25.283Z,10.93
2023-02-27T18:27:25.785Z,10.51
2023-02-27T18:42:25.439Z,11.18
2023-02-27T18:57:25.287Z,10.45
2023-02-27T19:12:25.381Z,10.88
2023-02-27T19:27:25.871Z,11.45
2023-02-27T19:42:25.647Z,10.91
2023-02-27T19:57:26.011Z,10.62
2023-02-27T20:12:25.220Z,9.72
2023-02-27T20:27:25.926Z,10.79
2023-02-27T20:42:25.338Z,11.28
2023-02-27T20:57:25.617Z,12.34
2023-02-27T21:12:26.103Z,11.29
2023-02-27T21:27:26.097Z,12.75
2023-02-27T21:57:25.704Z,12.31
2023-02-27T22:12:25.344Z,11.77
2023-02-27T22:27:25.912Z,13.08
2023-02-27T22:42:25.538Z,13.47
2023-02-27T22:57:25.804Z,13.07
2023-02-27T23:12:27.333Z,14.02
2023-02-27T23:27:26.492Z,14.85
2023-02-27T23:42:25.986Z,13.7
